sensor_id;sensor_type;location;lat;lon;timestamp;temperature;humidity
20648;DHT22;10483;44.646;10.924;2022-08-02T00:00:53;29.50;85.80
20648;DHT22;10483;44.646;10.924;2022-08-02T00:03:20;29.50;86.10
20648;DHT22;10483;44.646;10.924;2022-08-02T00:05:46;29.40;86.30
20648;DHT22;10483;44.646;10.924;2022-08-02T00:08:13;29.40;86.30
20648;DHT22;10483;44.646;10.924;2022-08-02T00:10:40;29.40;86.30
20648;DHT22;10483;44.646;10.924;2022-08-02T00:13:06;29.40;86.30
20648;DHT22;10483;44.646;10.924;2022-08-02T00:15:33;29.30;86.50
20648;DHT22;10483;44.646;10.924;2022-08-02T00:17:59;29.30;86.60
20648;DHT22;10483;44.646;10.924;2022-08-02T00:20:26;29.40;86.90
20648;DHT22;10483;44.646;10.924;2022-08-02T00:22:53;29.40;86.60
20648;DHT22;10483;44.646;10.924;2022-08-02T00:25:19;29.40;88.20
20648;DHT22;10483;44.646;10.924;2022-08-02T00:27:46;29.50;90.10
20648;DHT22;10483;44.646;10.924;2022-08-02T00:30:13;29.50;90.10
20648;DHT22;10483;44.646;10.924;2022-08-02T00:32:39;29.50;89.20
20648;DHT22;10483;44.646;10.924;2022-08-02T00:35:07;29.60;90.70
20648;DHT22;10483;44.646;10.924;2022-08-02T00:37:37;29.60;90.20
20648;DHT22;10483;44.646;10.924;2022-08-02T00:40:05;29.60;90.80
20648;DHT22;10483;44.646;10.924;2022-08-02T00:42:32;29.50;90.80
20648;DHT22;10483;44.646;10.924;2022-08-02T00:44:59;29.50;91.00
20648;DHT22;10483;44.646;10.924;2022-08-02T00:47:25;29.50;91.30
20648;DHT22;10483;44.646;10.924;2022-08-02T00:49:52;29.50;91.40
20648;DHT22;10483;44.646;10.924;2022-08-02T00:52:19;29.50;91.10
20648;DHT22;10483;44.646;10.924;2022-08-02T00:54:45;29.50;91.50
20648;DHT22;10483;44.646;10.924;2022-08-02T00:57:12;29.50;91.50
20648;DHT22;10483;44.646;10.924;2022-08-02T00:59:39;29.60;91.40
20648;DHT22;10483;44.646;10.924;2022-08-02T01:02:07;29.50;91.60
20648;DHT22;10483;44.646;10.924;2022-08-02T01:04:34;29.50;91.70
20648;DHT22;10483;44.646;10.924;2022-08-02T01:07:02;29.50;91.80
20648;DHT22;10483;44.646;10.924;2022-08-02T01:09:29;29.40;91.90
20648;DHT22;10483;44.646;10.924;2022-08-02T01:11:56;29.40;92.10
20648;DHT22;10483;44.646;10.924;2022-08-02T01:14:23;29.40;92.30
20648;DHT22;10483;44.646;10.924;2022-08-02T01:22:21;29.30;93.00
20648;DHT22;10483;44.646;10.924;2022-08-02T01:25:05;29.20;93.10
20648;DHT22;10483;44.646;10.924;2022-08-02T01:30:23;29.20;93.60
20648;DHT22;10483;44.646;10.924;2022-08-02T01:32:54;29.20;93.80
20648;DHT22;10483;44.646;10.924;2022-08-02T01:35:26;29.30;94.00
20648;DHT22;10483;44.646;10.924;2022-08-02T01:37:58;29.10;94.70
20648;DHT22;10483;44.646;10.924;2022-08-02T01:40:28;29.10;94.70
20648;DHT22;10483;44.646;10.924;2022-08-02T01:42:56;29.20;94.80
20648;DHT22;10483;44.646;10.924;2022-08-02T01:45:27;29.20;95.00
20648;DHT22;10483;44.646;10.924;2022-08-02T01:47:54;29.00;96.10
20648;DHT22;10483;44.646;10.924;2022-08-02T01:50:26;28.90;96.30
20648;DHT22;10483;44.646;10.924;2022-08-02T01:52:56;28.70;97.00
20648;DHT22;10483;44.646;10.924;2022-08-02T01:55:28;28.80;96.80
20648;DHT22;10483;44.646;10.924;2022-08-02T01:57:58;28.90;96.60
20648;DHT22;10483;44.646;10.924;2022-08-02T02:00:29;28.80;97.60
20648;DHT22;10483;44.646;10.924;2022-08-02T02:02:57;28.60;98.10
20648;DHT22;10483;44.646;10.924;2022-08-02T02:05:26;28.60;98.50
20648;DHT22;10483;44.646;10.924;2022-08-02T02:07:56;28.30;98.90
20648;DHT22;10483;44.646;10.924;2022-08-02T02:10:28;28.50;99.60
20648;DHT22;10483;44.646;10.924;2022-08-02T02:13:12;28.50;99.30
20648;DHT22;10483;44.646;10.924;2022-08-02T02:15:26;28.60;99.20
20648;DHT22;10483;44.646;10.924;2022-08-02T02:17:55;28.70;99.90
20648;DHT22;10483;44.646;10.924;2022-08-02T02:20:23;28.60;99.90
20648;DHT22;10483;44.646;10.924;2022-08-02T02:22:50;28.60;99.90
20648;DHT22;10483;44.646;10.924;2022-08-02T02:25:20;28.80;99.90
20648;DHT22;10483;44.646;10.924;2022-08-02T02:27:53;28.80;99.90
20648;DHT22;10483;44.646;10.924;2022-08-02T02:30:21;28.80;99.90
20648;DHT22;10483;44.646;10.924;2022-08-02T02:32:49;28.70;99.90
20648;DHT22;10483;44.646;10.924;2022-08-02T02:35:18;28.70;99.90
20648;DHT22;10483;44.646;10.924;2022-08-02T02:37:48;28.60;99.90
20648;DHT22;10483;44.646;10.924;2022-08-02T02:40:17;28.50;99.90
20648;DHT22;10483;44.646;10.924;2022-08-02T02:42:45;28.50;99.90
20648;DHT22;10483;44.646;10.924;2022-08-02T02:45:14;28.60;99.90
20648;DHT22;10483;44.646;10.924;2022-08-02T02:47:43;28.50;99.90
20648;DHT22;10483;44.646;10.924;2022-08-02T02:50:11;28.50;99.90
20648;DHT22;10483;44.646;10.924;2022-08-02T02:52:39;28.40;99.90
20648;DHT22;10483;44.646;10.924;2022-08-02T02:55:07;28.30;99.90
20648;DHT22;10483;44.646;10.924;2022-08-02T02:57:36;28.40;99.90
20648;DHT22;10483;44.646;10.924;2022-08-02T03:00:06;28.50;99.90
20648;DHT22;10483;44.646;10.924;2022-08-02T03:02:36;28.30;99.90
20648;DHT22;10483;44.646;10.924;2022-08-02T03:05:06;28.20;99.90
20648;DHT22;10483;44.646;10.924;2022-08-02T03:07:33;28.20;99.90
20648;DHT22;10483;44.646;10.924;2022-08-02T03:10:02;28.20;99.90
20648;DHT22;10483;44.646;10.924;2022-08-02T03:12:29;28.50;99.90
20648;DHT22;10483;44.646;10.924;2022-08-02T03:15:00;28.50;99.90
20648;DHT22;10483;44.646;10.924;2022-08-02T03:17:38;28.50;99.90
20648;DHT22;10483;44.646;10.924;2022-08-02T03:20:08;28.40;99.90
20648;DHT22;10483;44.646;10.924;2022-08-02T03:22:35;28.30;99.90
20648;DHT22;10483;44.646;10.924;2022-08-02T03:25:02;28.20;99.90
20648;DHT22;10483;44.646;10.924;2022-08-02T03:27:28;28.30;99.90
20648;DHT22;10483;44.646;10.924;2022-08-02T03:29:55;28.20;99.90
20648;DHT22;10483;44.646;10.924;2022-08-02T03:32:22;28.20;99.90
20648;DHT22;10483;44.646;10.924;2022-08-02T03:34:49;28.10;99.90
20648;DHT22;10483;44.646;10.924;2022-08-02T03:37:16;28.00;99.90
20648;DHT22;10483;44.646;10.924;2022-08-02T03:39:44;27.90;99.90
20648;DHT22;10483;44.646;10.924;2022-08-02T03:42:11;27.90;99.90
20648;DHT22;10483;44.646;10.924;2022-08-02T03:44:38;27.90;99.90
20648;DHT22;10483;44.646;10.924;2022-08-02T03:47:06;28.00;99.90
20648;DHT22;10483;44.646;10.924;2022-08-02T03:49:33;28.10;99.90
20648;DHT22;10483;44.646;10.924;2022-08-02T03:52:02;28.30;99.90
20648;DHT22;10483;44.646;10.924;2022-08-02T03:54:29;28.30;99.90
20648;DHT22;10483;44.646;10.924;2022-08-02T03:56:56;28.30;99.90
20648;DHT22;10483;44.646;10.924;2022-08-02T03:59:22;28.50;99.90
20648;DHT22;10483;44.646;10.924;2022-08-02T04:01:49;28.40;99.90
20648;DHT22;10483;44.646;10.924;2022-08-02T04:04:15;28.50;99.90
20648;DHT22;10483;44.646;10.924;2022-08-02T04:06:42;28.50;99.90
20648;DHT22;10483;44.646;10.924;2022-08-02T04:09:09;28.30;99.90
20648;DHT22;10483;44.646;10.924;2022-08-02T04:11:35;28.40;99.90
20648;DHT22;10483;44.646;10.924;2022-08-02T04:14:05;28.20;99.90
20648;DHT22;10483;44.646;10.924;2022-08-02T04:16:40;28.00;99.90
20648;DHT22;10483;44.646;10.924;2022-08-02T04:19:10;27.90;99.90
20648;DHT22;10483;44.646;10.924;2022-08-02T04:21:39;27.80;99.90
20648;DHT22;10483;44.646;10.924;2022-08-02T04:24:08;27.50;99.90
20648;DHT22;10483;44.646;10.924;2022-08-02T04:26:36;27.90;99.90
20648;DHT22;10483;44.646;10.924;2022-08-02T04:29:04;28.20;99.90
20648;DHT22;10483;44.646;10.924;2022-08-02T04:31:32;28.00;99.90
20648;DHT22;10483;44.646;10.924;2022-08-02T04:33:59;27.50;99.90
20648;DHT22;10483;44.646;10.924;2022-08-02T04:36:26;27.60;99.90
20648;DHT22;10483;44.646;10.924;2022-08-02T04:38:53;27.50;99.90
20648;DHT22;10483;44.646;10.924;2022-08-02T04:41:20;27.20;99.90
20648;DHT22;10483;44.646;10.924;2022-08-02T04:43:46;27.00;99.90
20648;DHT22;10483;44.646;10.924;2022-08-02T04:46:13;27.00;99.90
20648;DHT22;10483;44.646;10.924;2022-08-02T04:48:40;27.00;99.90
20648;DHT22;10483;44.646;10.924;2022-08-02T04:51:06;27.30;99.90
20648;DHT22;10483;44.646;10.924;2022-08-02T04:53:33;27.60;99.90
20648;DHT22;10483;44.646;10.924;2022-08-02T04:55:59;27.70;99.90
20648;DHT22;10483;44.646;10.924;2022-08-02T04:58:26;27.60;99.90
20648;DHT22;10483;44.646;10.924;2022-08-02T05:00:53;27.50;99.90
20648;DHT22;10483;44.646;10.924;2022-08-02T05:03:19;27.80;99.90
20648;DHT22;10483;44.646;10.924;2022-08-02T05:05:46;27.40;99.90
20648;DHT22;10483;44.646;10.924;2022-08-02T05:08:13;27.40;99.90
20648;DHT22;10483;44.646;10.924;2022-08-02T05:10:39;27.50;99.90
20648;DHT22;10483;44.646;10.924;2022-08-02T05:13:06;27.30;99.90
20648;DHT22;10483;44.646;10.924;2022-08-02T05:15:33;27.20;99.90
20648;DHT22;10483;44.646;10.924;2022-08-02T05:17:59;27.10;99.90
20648;DHT22;10483;44.646;10.924;2022-08-02T05:20:26;27.20;99.90
20648;DHT22;10483;44.646;10.924;2022-08-02T05:22:53;27.40;99.90
20648;DHT22;10483;44.646;10.924;2022-08-02T05:25:19;27.30;99.90
20648;DHT22;10483;44.646;10.924;2022-08-02T05:27:46;27.20;99.90
20648;DHT22;10483;44.646;10.924;2022-08-02T05:30:13;27.10;99.90
20648;DHT22;10483;44.646;10.924;2022-08-02T05:32:44;27.10;99.90
20648;DHT22;10483;44.646;10.924;2022-08-02T05:35:11;26.90;99.90
20648;DHT22;10483;44.646;10.924;2022-08-02T05:37:38;26.80;99.90
20648;DHT22;10483;44.646;10.924;2022-08-02T05:40:06;27.00;99.90
20648;DHT22;10483;44.646;10.924;2022-08-02T05:42:32;27.20;99.90
20648;DHT22;10483;44.646;10.924;2022-08-02T05:44:59;26.90;99.90
20648;DHT22;10483;44.646;10.924;2022-08-02T05:47:26;26.90;99.90
20648;DHT22;10483;44.646;10.924;2022-08-02T05:49:52;26.80;99.90
20648;DHT22;10483;44.646;10.924;2022-08-02T05:52:20;26.90;99.90
20648;DHT22;10483;44.646;10.924;2022-08-02T05:57:36;27.00;99.90
20648;DHT22;10483;44.646;10.924;2022-08-02T06:00:07;27.00;99.90
20648;DHT22;10483;44.646;10.924;2022-08-02T06:05:26;26.90;99.90
20648;DHT22;10483;44.646;10.924;2022-08-02T06:07:55;27.00;99.90
20648;DHT22;10483;44.646;10.924;2022-08-02T06:10:26;27.00;99.90
20648;DHT22;10483;44.646;10.924;2022-08-02T06:13:04;27.10;99.90
20648;DHT22;10483;44.646;10.924;2022-08-02T06:15:29;27.20;99.90
20648;DHT22;10483;44.646;10.924;2022-08-02T06:17:56;27.10;99.90
20648;DHT22;10483;44.646;10.924;2022-08-02T06:20:25;27.00;99.90
20648;DHT22;10483;44.646;10.924;2022-08-02T06:22:53;27.10;99.90
20648;DHT22;10483;44.646;10.924;2022-08-02T06:25:22;27.10;99.90
20648;DHT22;10483;44.646;10.924;2022-08-02T06:27:49;27.20;99.90
20648;DHT22;10483;44.646;10.924;2022-08-02T06:30:18;27.20;99.90
20648;DHT22;10483;44.646;10.924;2022-08-02T06:32:44;27.20;99.90
20648;DHT22;10483;44.646;10.924;2022-08-02T06:35:13;27.30;99.90
20648;DHT22;10483;44.646;10.924;2022-08-02T06:37:44;27.20;99.90
20648;DHT22;10483;44.646;10.924;2022-08-02T06:40:33;27.10;99.90
20648;DHT22;10483;44.646;10.924;2022-08-02T06:43:10;27.00;99.90
20648;DHT22;10483;44.646;10.924;2022-08-02T06:45:38;27.00;99.90
20648;DHT22;10483;44.646;10.924;2022-08-02T06:48:06;27.00;99.90
20648;DHT22;10483;44.646;10.924;2022-08-02T06:50:35;27.00;99.90
20648;DHT22;10483;44.646;10.924;2022-08-02T06:53:05;27.00;99.90
20648;DHT22;10483;44.646;10.924;2022-08-02T06:55:32;26.90;99.90
20648;DHT22;10483;44.646;10.924;2022-08-02T06:57:58;27.00;99.90
20648;DHT22;10483;44.646;10.924;2022-08-02T07:00:25;27.00;99.90
20648;DHT22;10483;44.646;10.924;2022-08-02T07:02:53;26.90;99.90
20648;DHT22;10483;44.646;10.924;2022-08-02T07:05:20;26.90;99.90
20648;DHT22;10483;44.646;10.924;2022-08-02T07:07:46;26.90;99.90
20648;DHT22;10483;44.646;10.924;2022-08-02T07:10:13;27.00;99.90
20648;DHT22;10483;44.646;10.924;2022-08-02T07:12:41;27.00;99.90
20648;DHT22;10483;44.646;10.924;2022-08-02T07:15:07;27.00;99.90
20648;DHT22;10483;44.646;10.924;2022-08-02T07:17:35;27.00;99.90
20648;DHT22;10483;44.646;10.924;2022-08-02T07:20:02;27.00;99.90
20648;DHT22;10483;44.646;10.924;2022-08-02T07:22:29;27.00;99.90
20648;DHT22;10483;44.646;10.924;2022-08-02T07:24:58;27.10;99.90
20648;DHT22;10483;44.646;10.924;2022-08-02T07:27:26;27.10;99.90
20648;DHT22;10483;44.646;10.924;2022-08-02T07:29:54;27.20;99.90
20648;DHT22;10483;44.646;10.924;2022-08-02T07:32:23;27.20;99.90
20648;DHT22;10483;44.646;10.924;2022-08-02T07:34:51;27.30;99.90
20648;DHT22;10483;44.646;10.924;2022-08-02T07:37:19;27.40;99.90
20648;DHT22;10483;44.646;10.924;2022-08-02T07:39:46;27.40;99.90
20648;DHT22;10483;44.646;10.924;2022-08-02T07:42:13;27.40;99.90
20648;DHT22;10483;44.646;10.924;2022-08-02T07:44:39;27.40;99.90
20648;DHT22;10483;44.646;10.924;2022-08-02T07:47:06;27.40;99.90
20648;DHT22;10483;44.646;10.924;2022-08-02T07:49:32;27.30;99.90
20648;DHT22;10483;44.646;10.924;2022-08-02T07:51:59;27.30;99.90
20648;DHT22;10483;44.646;10.924;2022-08-02T07:54:26;27.30;99.90
20648;DHT22;10483;44.646;10.924;2022-08-02T07:56:53;27.30;99.90
20648;DHT22;10483;44.646;10.924;2022-08-02T07:59:20;27.30;99.90
20648;DHT22;10483;44.646;10.924;2022-08-02T08:01:48;27.40;99.90
20648;DHT22;10483;44.646;10.924;2022-08-02T08:04:16;27.40;99.90
20648;DHT22;10483;44.646;10.924;2022-08-02T08:06:43;27.40;99.90
20648;DHT22;10483;44.646;10.924;2022-08-02T08:09:10;27.50;99.90
20648;DHT22;10483;44.646;10.924;2022-08-02T08:11:37;27.40;99.90
20648;DHT22;10483;44.646;10.924;2022-08-02T08:14:04;27.50;99.90
20648;DHT22;10483;44.646;10.924;2022-08-02T08:16:32;27.40;99.90
20648;DHT22;10483;44.646;10.924;2022-08-02T08:18:59;27.50;99.90
20648;DHT22;10483;44.646;10.924;2022-08-02T08:21:27;27.50;99.90
20648;DHT22;10483;44.646;10.924;2022-08-02T08:23:55;27.60;99.90
20648;DHT22;10483;44.646;10.924;2022-08-02T08:26:22;27.60;99.90
20648;DHT22;10483;44.646;10.924;2022-08-02T08:28:50;27.60;99.90
20648;DHT22;10483;44.646;10.924;2022-08-02T08:31:16;27.70;99.90
20648;DHT22;10483;44.646;10.924;2022-08-02T08:33:43;27.70;99.90
20648;DHT22;10483;44.646;10.924;2022-08-02T08:36:10;27.70;99.90
20648;DHT22;10483;44.646;10.924;2022-08-02T08:38:36;27.80;99.90
20648;DHT22;10483;44.646;10.924;2022-08-02T08:41:03;27.90;99.90
20648;DHT22;10483;44.646;10.924;2022-08-02T08:43:30;28.00;99.90
20648;DHT22;10483;44.646;10.924;2022-08-02T08:45:57;28.10;99.90
20648;DHT22;10483;44.646;10.924;2022-08-02T08:48:24;28.20;99.90
20648;DHT22;10483;44.646;10.924;2022-08-02T08:50:55;28.30;99.90
20648;DHT22;10483;44.646;10.924;2022-08-02T08:53:23;28.40;99.90
20648;DHT22;10483;44.646;10.924;2022-08-02T08:55:52;28.50;99.90
20648;DHT22;10483;44.646;10.924;2022-08-02T08:58:21;28.50;99.90
20648;DHT22;10483;44.646;10.924;2022-08-02T09:00:48;28.60;99.90
20648;DHT22;10483;44.646;10.924;2022-08-02T09:03:15;28.60;99.90
20648;DHT22;10483;44.646;10.924;2022-08-02T09:05:41;28.70;99.90
20648;DHT22;10483;44.646;10.924;2022-08-02T09:08:10;28.70;99.90
20648;DHT22;10483;44.646;10.924;2022-08-02T09:10:42;28.80;99.90
20648;DHT22;10483;44.646;10.924;2022-08-02T09:13:14;28.90;99.90
20648;DHT22;10483;44.646;10.924;2022-08-02T09:15:42;28.90;99.90
20648;DHT22;10483;44.646;10.924;2022-08-02T09:18:10;28.90;99.90
20648;DHT22;10483;44.646;10.924;2022-08-02T09:20:54;29.00;99.90
20648;DHT22;10483;44.646;10.924;2022-08-02T09:23:23;29.00;99.90
20648;DHT22;10483;44.646;10.924;2022-08-02T09:25:56;29.00;99.90
20648;DHT22;10483;44.646;10.924;2022-08-02T09:28:30;29.10;99.90
20648;DHT22;10483;44.646;10.924;2022-08-02T09:31:08;29.20;99.50
20648;DHT22;10483;44.646;10.924;2022-08-02T09:33:35;29.40;98.50
20648;DHT22;10483;44.646;10.924;2022-08-02T09:36:06;29.60;98.40
20648;DHT22;10483;44.646;10.924;2022-08-02T09:38:35;29.80;98.30
20648;DHT22;10483;44.646;10.924;2022-08-02T09:41:03;29.90;97.70
20648;DHT22;10483;44.646;10.924;2022-08-02T09:43:36;29.90;97.90
20648;DHT22;10483;44.646;10.924;2022-08-02T09:46:15;30.00;99.80
20648;DHT22;10483;44.646;10.924;2022-08-02T09:48:53;30.00;97.70
20648;DHT22;10483;44.646;10.924;2022-08-02T09:51:22;30.20;97.90
20648;DHT22;10483;44.646;10.924;2022-08-02T09:53:56;30.20;97.80
20648;DHT22;10483;44.646;10.924;2022-08-02T09:56:24;30.40;97.80
20648;DHT22;10483;44.646;10.924;2022-08-02T09:58:51;30.60;96.60
20648;DHT22;10483;44.646;10.924;2022-08-02T10:01:20;30.70;95.70
20648;DHT22;10483;44.646;10.924;2022-08-02T10:03:53;30.80;95.00
20648;DHT22;10483;44.646;10.924;2022-08-02T10:06:21;31.10;95.80
20648;DHT22;10483;44.646;10.924;2022-08-02T10:08:48;31.30;94.10
20648;DHT22;10483;44.646;10.924;2022-08-02T10:11:16;31.70;93.60
20648;DHT22;10483;44.646;10.924;2022-08-02T10:13:43;32.00;93.90
20648;DHT22;10483;44.646;10.924;2022-08-02T10:16:11;32.30;92.60
20648;DHT22;10483;44.646;10.924;2022-08-02T10:18:39;32.80;92.80
20648;DHT22;10483;44.646;10.924;2022-08-02T10:21:10;33.20;91.40
20648;DHT22;10483;44.646;10.924;2022-08-02T10:23:38;33.60;90.20
20648;DHT22;10483;44.646;10.924;2022-08-02T10:26:06;34.10;89.80
20648;DHT22;10483;44.646;10.924;2022-08-02T10:28:33;34.60;88.40
20648;DHT22;10483;44.646;10.924;2022-08-02T10:31:04;35.30;87.00
20648;DHT22;10483;44.646;10.924;2022-08-02T10:33:34;35.80;88.00
20648;DHT22;10483;44.646;10.924;2022-08-02T10:36:02;36.30;81.70
20648;DHT22;10483;44.646;10.924;2022-08-02T10:38:30;36.00;80.10
20648;DHT22;10483;44.646;10.924;2022-08-02T10:40:57;35.80;79.80
20648;DHT22;10483;44.646;10.924;2022-08-02T10:43:45;35.20;80.80
20648;DHT22;10483;44.646;10.924;2022-08-02T10:46:23;34.80;80.90
20648;DHT22;10483;44.646;10.924;2022-08-02T10:49:02;34.80;84.20
20648;DHT22;10483;44.646;10.924;2022-08-02T10:51:57;34.50;86.40
20648;DHT22;10483;44.646;10.924;2022-08-02T10:54:41;34.70;85.80
20648;DHT22;10483;44.646;10.924;2022-08-02T10:57:23;35.00;80.80
20648;DHT22;10483;44.646;10.924;2022-08-02T10:59:56;34.80;83.80
20648;DHT22;10483;44.646;10.924;2022-08-02T11:02:36;34.90;80.90
20648;DHT22;10483;44.646;10.924;2022-08-02T11:05:11;34.60;83.60
20648;DHT22;10483;44.646;10.924;2022-08-02T11:07:42;34.40;80.10
20648;DHT22;10483;44.646;10.924;2022-08-02T11:13:08;33.60;87.30
20648;DHT22;10483;44.646;10.924;2022-08-02T11:15:50;33.40;82.40
20648;DHT22;10483;44.646;10.924;2022-08-02T11:18:17;33.20;82.00
20648;DHT22;10483;44.646;10.924;2022-08-02T11:20:44;33.00;80.80
20648;DHT22;10483;44.646;10.924;2022-08-02T11:25:50;32.70;83.80
20648;DHT22;10483;44.646;10.924;2022-08-02T11:28:17;32.50;89.10
20648;DHT22;10483;44.646;10.924;2022-08-02T11:30:44;32.50;85.40
20648;DHT22;10483;44.646;10.924;2022-08-02T11:33:10;32.50;83.80
20648;DHT22;10483;44.646;10.924;2022-08-02T11:35:38;32.50;81.20
20648;DHT22;10483;44.646;10.924;2022-08-02T11:38:16;32.30;80.80
20648;DHT22;10483;44.646;10.924;2022-08-02T11:40:43;32.30;87.50
20648;DHT22;10483;44.646;10.924;2022-08-02T11:43:17;32.20;81.80
20648;DHT22;10483;44.646;10.924;2022-08-02T11:45:44;32.20;86.00
20648;DHT22;10483;44.646;10.924;2022-08-02T11:48:11;32.00;90.90
20648;DHT22;10483;44.646;10.924;2022-08-02T11:50:38;32.00;90.00
20648;DHT22;10483;44.646;10.924;2022-08-02T11:53:12;32.00;87.90
20648;DHT22;10483;44.646;10.924;2022-08-02T11:55:39;32.00;88.50
20648;DHT22;10483;44.646;10.924;2022-08-02T11:58:06;31.90;91.00
20648;DHT22;10483;44.646;10.924;2022-08-02T12:00:35;31.90;85.80
20648;DHT22;10483;44.646;10.924;2022-08-02T12:03:03;31.90;85.90
20648;DHT22;10483;44.646;10.924;2022-08-02T12:05:30;32.00;84.80
20648;DHT22;10483;44.646;10.924;2022-08-02T12:07:57;31.90;89.80
20648;DHT22;10483;44.646;10.924;2022-08-02T12:10:24;32.00;84.70
20648;DHT22;10483;44.646;10.924;2022-08-02T12:12:53;32.10;84.10
20648;DHT22;10483;44.646;10.924;2022-08-02T12:15:31;32.20;86.40
20648;DHT22;10483;44.646;10.924;2022-08-02T12:17:59;32.10;83.90
20648;DHT22;10483;44.646;10.924;2022-08-02T12:20:35;32.10;87.30
20648;DHT22;10483;44.646;10.924;2022-08-02T12:23:03;32.10;84.70
20648;DHT22;10483;44.646;10.924;2022-08-02T12:25:30;32.20;83.40
20648;DHT22;10483;44.646;10.924;2022-08-02T12:30:47;32.10;84.20
20648;DHT22;10483;44.646;10.924;2022-08-02T12:33:08;32.00;83.70
20648;DHT22;10483;44.646;10.924;2022-08-02T12:35:34;32.00;85.30
20648;DHT22;10483;44.646;10.924;2022-08-02T12:38:07;32.00;83.60
20648;DHT22;10483;44.646;10.924;2022-08-02T12:40:32;32.00;85.20
20648;DHT22;10483;44.646;10.924;2022-08-02T12:43:01;32.00;84.30
20648;DHT22;10483;44.646;10.924;2022-08-02T12:45:30;32.00;85.80
20648;DHT22;10483;44.646;10.924;2022-08-02T12:47:59;32.00;84.30
20648;DHT22;10483;44.646;10.924;2022-08-02T12:50:28;32.00;89.10
20648;DHT22;10483;44.646;10.924;2022-08-02T12:53:09;32.00;89.10
20648;DHT22;10483;44.646;10.924;2022-08-02T12:58:10;31.90;85.70
20648;DHT22;10483;44.646;10.924;2022-08-02T13:00:38;32.00;87.10
20648;DHT22;10483;44.646;10.924;2022-08-02T13:03:06;32.10;87.60
20648;DHT22;10483;44.646;10.924;2022-08-02T13:05:34;32.10;84.90
20648;DHT22;10483;44.646;10.924;2022-08-02T13:08:02;32.00;86.40
20648;DHT22;10483;44.646;10.924;2022-08-02T13:10:30;32.10;85.20
20648;DHT22;10483;44.646;10.924;2022-08-02T13:12:56;32.00;90.10
20648;DHT22;10483;44.646;10.924;2022-08-02T13:15:23;31.90;90.80
20648;DHT22;10483;44.646;10.924;2022-08-02T13:17:50;31.80;89.00
20648;DHT22;10483;44.646;10.924;2022-08-02T13:20:17;31.80;90.40
20648;DHT22;10483;44.646;10.924;2022-08-02T13:22:43;31.80;87.50
20648;DHT22;10483;44.646;10.924;2022-08-02T13:25:10;31.60;91.80
20648;DHT22;10483;44.646;10.924;2022-08-02T13:27:37;31.70;89.80
20648;DHT22;10483;44.646;10.924;2022-08-02T13:30:05;31.80;89.80
20648;DHT22;10483;44.646;10.924;2022-08-02T13:32:31;31.80;90.30
20648;DHT22;10483;44.646;10.924;2022-08-02T13:34:58;31.70;88.40
20648;DHT22;10483;44.646;10.924;2022-08-02T13:37:25;31.70;89.10
20648;DHT22;10483;44.646;10.924;2022-08-02T13:39:52;31.70;86.80
20648;DHT22;10483;44.646;10.924;2022-08-02T13:42:19;31.70;89.20
20648;DHT22;10483;44.646;10.924;2022-08-02T13:44:46;31.70;85.40
20648;DHT22;10483;44.646;10.924;2022-08-02T13:47:13;31.80;85.60
20648;DHT22;10483;44.646;10.924;2022-08-02T13:49:40;31.80;87.00
20648;DHT22;10483;44.646;10.924;2022-08-02T13:52:07;31.80;85.00
20648;DHT22;10483;44.646;10.924;2022-08-02T13:54:33;31.80;85.40
20648;DHT22;10483;44.646;10.924;2022-08-02T13:57:00;31.80;90.20
20648;DHT22;10483;44.646;10.924;2022-08-02T13:59:27;31.70;88.50
20648;DHT22;10483;44.646;10.924;2022-08-02T14:01:54;31.70;87.40
20648;DHT22;10483;44.646;10.924;2022-08-02T14:04:21;31.70;86.20
20648;DHT22;10483;44.646;10.924;2022-08-02T14:06:48;31.80;84.80
20648;DHT22;10483;44.646;10.924;2022-08-02T14:09:15;31.90;85.00
20648;DHT22;10483;44.646;10.924;2022-08-02T14:11:42;31.90;84.90
20648;DHT22;10483;44.646;10.924;2022-08-02T14:14:09;31.80;88.00
20648;DHT22;10483;44.646;10.924;2022-08-02T14:16:36;31.80;90.50
20648;DHT22;10483;44.646;10.924;2022-08-02T14:19:02;31.70;90.70
20648;DHT22;10483;44.646;10.924;2022-08-02T14:21:31;31.60;89.60
20648;DHT22;10483;44.646;10.924;2022-08-02T14:23:57;31.60;90.30
20648;DHT22;10483;44.646;10.924;2022-08-02T14:26:24;31.40;92.00
20648;DHT22;10483;44.646;10.924;2022-08-02T14:28:51;31.40;91.90
20648;DHT22;10483;44.646;10.924;2022-08-02T14:31:17;31.30;90.60
20648;DHT22;10483;44.646;10.924;2022-08-02T14:33:44;31.30;91.70
20648;DHT22;10483;44.646;10.924;2022-08-02T14:36:10;31.50;85.60
20648;DHT22;10483;44.646;10.924;2022-08-02T14:38:37;31.90;86.30
20648;DHT22;10483;44.646;10.924;2022-08-02T14:41:04;31.90;86.30
20648;DHT22;10483;44.646;10.924;2022-08-02T14:43:31;31.70;90.00
20648;DHT22;10483;44.646;10.924;2022-08-02T14:46:03;31.60;90.60
20648;DHT22;10483;44.646;10.924;2022-08-02T14:48:30;31.60;87.00
20648;DHT22;10483;44.646;10.924;2022-08-02T14:50:56;31.80;85.00
20648;DHT22;10483;44.646;10.924;2022-08-02T14:53:23;31.80;86.80
20648;DHT22;10483;44.646;10.924;2022-08-02T14:55:50;31.90;87.70
20648;DHT22;10483;44.646;10.924;2022-08-02T14:58:16;31.90;85.50
20648;DHT22;10483;44.646;10.924;2022-08-02T15:00:43;31.80;89.30
20648;DHT22;10483;44.646;10.924;2022-08-02T15:03:10;31.80;86.60
20648;DHT22;10483;44.646;10.924;2022-08-02T15:05:38;31.80;88.00
20648;DHT22;10483;44.646;10.924;2022-08-02T15:08:05;31.70;85.50
20648;DHT22;10483;44.646;10.924;2022-08-02T15:10:32;31.60;90.20
20648;DHT22;10483;44.646;10.924;2022-08-02T15:12:58;31.60;90.10
20648;DHT22;10483;44.646;10.924;2022-08-02T15:15:25;31.50;90.10
20648;DHT22;10483;44.646;10.924;2022-08-02T15:17:52;31.60;86.80
20648;DHT22;10483;44.646;10.924;2022-08-02T15:20:18;31.60;87.90
20648;DHT22;10483;44.646;10.924;2022-08-02T15:22:45;31.70;84.20
20648;DHT22;10483;44.646;10.924;2022-08-02T15:25:11;31.80;84.40
20648;DHT22;10483;44.646;10.924;2022-08-02T15:27:38;31.90;83.60
20648;DHT22;10483;44.646;10.924;2022-08-02T15:30:05;31.90;87.80
20648;DHT22;10483;44.646;10.924;2022-08-02T15:32:32;31.90;87.30
20648;DHT22;10483;44.646;10.924;2022-08-02T15:34:59;31.80;85.40
20648;DHT22;10483;44.646;10.924;2022-08-02T15:37:26;31.80;83.50
20648;DHT22;10483;44.646;10.924;2022-08-02T15:39:53;31.80;84.40
20648;DHT22;10483;44.646;10.924;2022-08-02T15:42:19;31.70;85.00
20648;DHT22;10483;44.646;10.924;2022-08-02T15:44:46;31.90;82.40
20648;DHT22;10483;44.646;10.924;2022-08-02T15:47:13;32.10;82.00